PWSweather.com
Personal Weather Stations
Station Observations
KPAEXPOR2
Wellington Estates, Export, PA 15632

Wellington EstatesExport, PA 15632

Lat: 40.446, Lon: -79.592

Elevation: 1286

Station Type: PWS1000-TD

http://www.westmorelandweather.com

Latest ConditionsUpdated 5:15:02 AM EDT Tuesday, Sep 16, 2014
Currently Today's Max Today's Min Today's Average
Temperature 53.9°F12.2°C 55.9°F13.3°C 53.9°F12.2°C 55.2°F12.9°C
Dew Point 53.4°F11.9°C 53.4°F11.9°C 50.8°F10.4°C 52.0°F11.1°C
Winds 1.9 mph S3.1 kmh S 2.5 mph S4.0 kmh S - 0.8 mph 1.3 kmh
Wind Gusts 3.1 mph5.0 kmh 3.8 mph6.1 kmh - -
Humidity 98% 98% 83% 89%
Pressure 30.06 in1017.9 mb 30.07 in1018.3 mb 30.05 in1017.6 mb -
Precipitation - 0.09 in2.3 mm - -
Hour Temp Dew Point Humidity Winds Wind Gusts Pressure Precip Precip Rate Daily Precip Total
05:15 AM 53.9°F12.2°C 53.4°F11.9°C 98% 1.9 mph S3.1 kmh S 3.1 mph5.0 kmh 30.06 in1017.9 mb 0.00 in0.0 mm 0.00 in/hr0.0 mm/hr 0.09 in2.3 mm
05:00 AM 54.1°F12.3°C 53.3°F11.8°C 97% 2.5 mph S4.0 kmh S 3.8 mph6.1 kmh 30.06 in1017.9 mb 0.00 in0.0 mm 0.00 in/hr0.0 mm/hr 0.09 in2.3 mm
04:45 AM 54.3°F12.4°C 53.2°F11.8°C 96% 1.2 mph S1.9 kmh S 3.1 mph5.0 kmh 30.06 in1017.9 mb 0.00 in0.0 mm 0.00 in/hr0.0 mm/hr 0.09 in2.3 mm
04:30 AM 54.5°F12.5°C 53.1°F11.7°C 95% 0.1 mph N0.2 kmh N 0.7 mph1.1 kmh 30.06 in1017.9 mb 0.02 in0.5 mm 0.00 in/hr0.0 mm/hr 0.09 in2.3 mm
04:15 AM 54.3°F12.4°C 52.9°F11.6°C 95% 0.2 mph N0.3 kmh N 0.7 mph1.1 kmh 30.05 in1017.6 mb 0.06 in1.5 mm 0.00 in/hr0.0 mm/hr 0.09 in2.3 mm
04:00 AM 54.7°F12.6°C 53.3°F11.8°C 95% 0.8 mph E1.3 kmh E 2.2 mph3.5 kmh 30.06 in1017.9 mb 0.08 in2.0 mm 0.00 in/hr0.0 mm/hr 0.09 in2.3 mm
03:45 AM 54.5°F12.5°C 52.8°F11.6°C 94% 1.1 mph S1.8 kmh S 2.2 mph3.5 kmh 30.07 in1018.3 mb 0.09 in2.3 mm 0.08 in/hr2.0 mm/hr 0.09 in2.3 mm
03:30 AM 54.7°F12.6°C 52.4°F11.3°C 92% 1.5 mph S2.4 kmh S 2.2 mph3.5 kmh 30.06 in1017.9 mb 0.07 in1.8 mm 0.12 in/hr3.0 mm/hr 0.07 in1.8 mm
03:15 AM 55.0°F12.8°C 52.4°F11.3°C 91% 0.5 mph SSW0.8 kmh SSW 1.6 mph2.6 kmh 30.06 in1017.9 mb 0.04 in1.0 mm 0.12 in/hr3.0 mm/hr 0.04 in1.0 mm
03:00 AM 55.2°F12.9°C 52.3°F11.3°C 90% 0.1 mph S0.2 kmh S 0.7 mph1.1 kmh 30.06 in1017.9 mb 0.01 in0.3 mm 0.01 in/hr0.3 mm/hr 0.01 in0.3 mm
02:45 AM 55.4°F13.0°C 51.9°F11.1°C 88% 1.3 mph SW2.1 kmh SW 2.2 mph3.5 kmh 30.06 in1017.9 mb 0.00 in0.0 mm 0.00 in/hr0.0 mm/hr 0.00 in0.0 mm
02:30 AM 55.6°F13.1°C 51.8°F11.0°C 87% 0.8 mph WSW1.3 kmh WSW 1.6 mph2.6 kmh 30.06 in1017.9 mb 0.00 in0.0 mm 0.00 in/hr0.0 mm/hr 0.00 in0.0 mm
02:15 AM 55.7°F13.2°C 51.9°F11.1°C 87% 0.3 mph NNW0.5 kmh NNW 1.6 mph2.6 kmh 30.06 in1017.9 mb 0.00 in0.0 mm 0.00 in/hr0.0 mm/hr 0.00 in0.0 mm
02:00 AM 55.6°F13.1°C 51.4°F10.8°C 86% Calm Calm -- 30.06 in1017.9 mb 0.00 in0.0 mm 0.00 in/hr0.0 mm/hr 0.00 in0.0 mm
01:45 AM 55.7°F13.2°C 51.3°F10.7°C 85% Calm Calm -- 30.05 in1017.6 mb 0.00 in0.0 mm 0.00 in/hr0.0 mm/hr 0.00 in0.0 mm
01:30 AM 55.7°F13.2°C 51.0°F10.6°C 84% 0.8 mph NW1.3 kmh NW 2.2 mph3.5 kmh 30.05 in1017.6 mb 0.00 in0.0 mm 0.00 in/hr0.0 mm/hr 0.00 in0.0 mm
01:15 AM 55.9°F13.3°C 51.2°F10.7°C 84% 0.6 mph NNW1.0 kmh NNW 0.7 mph1.1 kmh 30.05 in1017.6 mb 0.00 in0.0 mm 0.00 in/hr0.0 mm/hr 0.00 in0.0 mm
01:00 AM 55.9°F13.3°C 50.8°F10.4°C 83% 0.7 mph NW1.1 kmh NW 1.6 mph2.6 kmh 30.06 in1017.9 mb 0.00 in0.0 mm 0.00 in/hr0.0 mm/hr 0.00 in0.0 mm
12:45 AM 55.9°F13.3°C 50.8°F10.4°C 83% 1.1 mph NW1.8 kmh NW 2.2 mph3.5 kmh 30.06 in1017.9 mb 0.00 in0.0 mm 0.00 in/hr0.0 mm/hr 0.00 in0.0 mm
12:30 AM 55.9°F13.3°C 50.8°F10.4°C 83% 0.5 mph NW0.8 kmh NW 0.7 mph1.1 kmh 30.06 in1017.9 mb 0.00 in0.0 mm 0.00 in/hr0.0 mm/hr 0.00 in0.0 mm
12:15 AM 55.6°F13.1°C 50.8°F10.4°C 84% 0.8 mph W1.3 kmh W 2.2 mph3.5 kmh 30.06 in1017.9 mb 0.00 in0.0 mm 0.00 in/hr0.0 mm/hr 0.00 in0.0 mm
12:00 AM 55.7°F13.2°C 51.3°F10.7°C 85% 0.2 mph WSW0.3 kmh WSW 0.7 mph1.1 kmh 30.07 in1018.3 mb 0.00 in0.0 mm 0.00 in/hr0.0 mm/hr 0.00 in0.0 mm